sensor_id;sensor_type;location;lat;lon;timestamp;temperature;humidity
21612;DHT22;47005;52.292;13.452;2024-02-28T00:00:29;7.50;99.90
21612;DHT22;47005;52.292;13.452;2024-02-28T00:02:55;7.50;99.90
21612;DHT22;47005;52.292;13.452;2024-02-28T00:05:21;7.50;99.90
21612;DHT22;47005;52.292;13.452;2024-02-28T00:07:46;7.50;99.90
21612;DHT22;47005;52.292;13.452;2024-02-28T00:10:13;7.50;99.90
21612;DHT22;47005;52.292;13.452;2024-02-28T00:12:38;7.50;99.90
21612;DHT22;47005;52.292;13.452;2024-02-28T00:15:05;7.50;99.90
21612;DHT22;47005;52.292;13.452;2024-02-28T00:17:38;7.50;99.90
21612;DHT22;47005;52.292;13.452;2024-02-28T00:20:05;7.50;99.90
21612;DHT22;47005;52.292;13.452;2024-02-28T00:22:31;7.50;99.90
21612;DHT22;47005;52.292;13.452;2024-02-28T00:24:56;7.50;99.90
21612;DHT22;47005;52.292;13.452;2024-02-28T00:27:22;7.50;99.90
21612;DHT22;47005;52.292;13.452;2024-02-28T00:29:48;7.50;99.90
21612;DHT22;47005;52.292;13.452;2024-02-28T00:32:13;7.50;99.90
21612;DHT22;47005;52.292;13.452;2024-02-28T00:34:39;7.50;99.90
21612;DHT22;47005;52.292;13.452;2024-02-28T00:37:04;7.50;99.90
21612;DHT22;47005;52.292;13.452;2024-02-28T00:39:30;7.50;99.90
21612;DHT22;47005;52.292;13.452;2024-02-28T00:41:56;7.50;99.90
21612;DHT22;47005;52.292;13.452;2024-02-28T00:44:21;7.50;99.90
21612;DHT22;47005;52.292;13.452;2024-02-28T00:46:47;7.50;99.90
21612;DHT22;47005;52.292;13.452;2024-02-28T00:49:12;7.50;99.90
21612;DHT22;47005;52.292;13.452;2024-02-28T00:51:38;7.50;99.90
21612;DHT22;47005;52.292;13.452;2024-02-28T00:54:04;7.50;99.90
21612;DHT22;47005;52.292;13.452;2024-02-28T00:56:30;7.50;99.90
21612;DHT22;47005;52.292;13.452;2024-02-28T00:58:56;7.50;99.90
21612;DHT22;47005;52.292;13.452;2024-02-28T01:01:22;7.50;99.90
21612;DHT22;47005;52.292;13.452;2024-02-28T01:03:47;7.40;99.90
21612;DHT22;47005;52.292;13.452;2024-02-28T01:06:13;7.40;99.90
21612;DHT22;47005;52.292;13.452;2024-02-28T01:08:40;7.40;99.90
21612;DHT22;47005;52.292;13.452;2024-02-28T01:11:05;7.40;99.90
21612;DHT22;47005;52.292;13.452;2024-02-28T01:13:31;7.40;99.90
21612;DHT22;47005;52.292;13.452;2024-02-28T01:15:57;7.40;99.90
21612;DHT22;47005;52.292;13.452;2024-02-28T01:18:24;7.40;99.90
21612;DHT22;47005;52.292;13.452;2024-02-28T01:20:50;7.30;99.90
21612;DHT22;47005;52.292;13.452;2024-02-28T01:23:16;7.30;99.90
21612;DHT22;47005;52.292;13.452;2024-02-28T01:25:42;7.30;99.90
21612;DHT22;47005;52.292;13.452;2024-02-28T01:28:08;7.30;99.90
21612;DHT22;47005;52.292;13.452;2024-02-28T01:30:33;7.20;99.90
21612;DHT22;47005;52.292;13.452;2024-02-28T01:32:59;7.20;99.90
21612;DHT22;47005;52.292;13.452;2024-02-28T01:35:25;7.20;99.90
21612;DHT22;47005;52.292;13.452;2024-02-28T01:37:50;7.20;99.90
21612;DHT22;47005;52.292;13.452;2024-02-28T01:40:16;7.20;99.90
21612;DHT22;47005;52.292;13.452;2024-02-28T01:42:42;7.20;99.90
21612;DHT22;47005;52.292;13.452;2024-02-28T01:45:10;7.20;99.90
21612;DHT22;47005;52.292;13.452;2024-02-28T01:47:38;7.20;99.90
21612;DHT22;47005;52.292;13.452;2024-02-28T01:50:04;7.20;99.90
21612;DHT22;47005;52.292;13.452;2024-02-28T01:52:30;7.20;99.90
21612;DHT22;47005;52.292;13.452;2024-02-28T01:54:56;7.20;99.90
21612;DHT22;47005;52.292;13.452;2024-02-28T01:57:22;7.20;99.90
21612;DHT22;47005;52.292;13.452;2024-02-28T01:59:48;7.20;99.90
21612;DHT22;47005;52.292;13.452;2024-02-28T02:02:13;7.20;99.90
21612;DHT22;47005;52.292;13.452;2024-02-28T02:04:39;7.20;99.90
21612;DHT22;47005;52.292;13.452;2024-02-28T02:07:06;7.20;99.90
21612;DHT22;47005;52.292;13.452;2024-02-28T02:09:33;7.20;99.90
21612;DHT22;47005;52.292;13.452;2024-02-28T02:12:00;7.20;99.90
21612;DHT22;47005;52.292;13.452;2024-02-28T02:14:25;7.20;99.90
21612;DHT22;47005;52.292;13.452;2024-02-28T02:16:51;7.20;99.90
21612;DHT22;47005;52.292;13.452;2024-02-28T02:19:16;7.20;99.90
21612;DHT22;47005;52.292;13.452;2024-02-28T02:21:52;7.20;99.90
21612;DHT22;47005;52.292;13.452;2024-02-28T02:24:18;7.20;99.90
21612;DHT22;47005;52.292;13.452;2024-02-28T02:26:44;7.20;99.90
21612;DHT22;47005;52.292;13.452;2024-02-28T02:29:12;7.30;99.90
21612;DHT22;47005;52.292;13.452;2024-02-28T02:31:37;7.30;99.90
21612;DHT22;47005;52.292;13.452;2024-02-28T02:34:03;7.20;99.90
21612;DHT22;47005;52.292;13.452;2024-02-28T02:36:29;7.20;99.90
21612;DHT22;47005;52.292;13.452;2024-02-28T02:38:54;7.20;99.90
21612;DHT22;47005;52.292;13.452;2024-02-28T02:41:20;7.20;99.90
21612;DHT22;47005;52.292;13.452;2024-02-28T02:43:45;7.30;99.90
21612;DHT22;47005;52.292;13.452;2024-02-28T02:46:11;7.20;99.90
21612;DHT22;47005;52.292;13.452;2024-02-28T02:48:37;7.20;99.90
21612;DHT22;47005;52.292;13.452;2024-02-28T02:51:02;7.20;99.90
21612;DHT22;47005;52.292;13.452;2024-02-28T02:53:28;7.20;99.90
21612;DHT22;47005;52.292;13.452;2024-02-28T02:55:54;7.20;99.90
21612;DHT22;47005;52.292;13.452;2024-02-28T02:58:19;7.10;99.90
21612;DHT22;47005;52.292;13.452;2024-02-28T03:00:45;7.10;99.90
21612;DHT22;47005;52.292;13.452;2024-02-28T03:03:11;7.10;99.90
21612;DHT22;47005;52.292;13.452;2024-02-28T03:05:36;7.00;99.90
21612;DHT22;47005;52.292;13.452;2024-02-28T03:08:02;7.10;99.90
21612;DHT22;47005;52.292;13.452;2024-02-28T03:10:28;7.00;99.90
21612;DHT22;47005;52.292;13.452;2024-02-28T03:12:54;7.10;99.90
21612;DHT22;47005;52.292;13.452;2024-02-28T03:15:20;7.10;99.90
21612;DHT22;47005;52.292;13.452;2024-02-28T03:17:46;7.00;99.90
21612;DHT22;47005;52.292;13.452;2024-02-28T03:20:11;7.00;99.90
21612;DHT22;47005;52.292;13.452;2024-02-28T03:22:39;7.00;99.90
21612;DHT22;47005;52.292;13.452;2024-02-28T03:25:05;7.00;99.90
21612;DHT22;47005;52.292;13.452;2024-02-28T03:27:31;7.00;99.90
21612;DHT22;47005;52.292;13.452;2024-02-28T03:29:57;7.00;99.90
21612;DHT22;47005;52.292;13.452;2024-02-28T03:32:22;7.00;99.90
21612;DHT22;47005;52.292;13.452;2024-02-28T03:34:48;7.00;99.90
21612;DHT22;47005;52.292;13.452;2024-02-28T03:37:14;7.00;99.90
21612;DHT22;47005;52.292;13.452;2024-02-28T03:39:40;7.00;99.90
21612;DHT22;47005;52.292;13.452;2024-02-28T03:42:06;7.00;99.90
21612;DHT22;47005;52.292;13.452;2024-02-28T03:44:31;6.90;99.90
21612;DHT22;47005;52.292;13.452;2024-02-28T03:46:57;7.00;99.90
21612;DHT22;47005;52.292;13.452;2024-02-28T03:49:22;7.00;99.90
21612;DHT22;47005;52.292;13.452;2024-02-28T03:51:48;6.90;99.90
21612;DHT22;47005;52.292;13.452;2024-02-28T03:54:14;6.90;99.90
21612;DHT22;47005;52.292;13.452;2024-02-28T03:56:39;6.90;99.90
21612;DHT22;47005;52.292;13.452;2024-02-28T03:59:05;6.90;99.90
21612;DHT22;47005;52.292;13.452;2024-02-28T04:01:31;7.00;99.90
21612;DHT22;47005;52.292;13.452;2024-02-28T04:03:56;6.90;99.90
21612;DHT22;47005;52.292;13.452;2024-02-28T04:06:22;6.90;99.90
21612;DHT22;47005;52.292;13.452;2024-02-28T04:08:47;7.00;99.90
21612;DHT22;47005;52.292;13.452;2024-02-28T04:11:13;6.90;99.90
21612;DHT22;47005;52.292;13.452;2024-02-28T04:13:40;7.00;99.90
21612;DHT22;47005;52.292;13.452;2024-02-28T04:16:07;7.00;99.90
21612;DHT22;47005;52.292;13.452;2024-02-28T04:18:33;6.90;99.90
21612;DHT22;47005;52.292;13.452;2024-02-28T04:20:59;6.90;99.90
21612;DHT22;47005;52.292;13.452;2024-02-28T04:23:25;6.90;99.90
21612;DHT22;47005;52.292;13.452;2024-02-28T04:25:50;7.00;99.90
21612;DHT22;47005;52.292;13.452;2024-02-28T04:28:16;6.90;99.90
21612;DHT22;47005;52.292;13.452;2024-02-28T04:30:42;6.90;99.90
21612;DHT22;47005;52.292;13.452;2024-02-28T04:33:08;6.90;99.90
21612;DHT22;47005;52.292;13.452;2024-02-28T04:35:33;6.90;99.90
21612;DHT22;47005;52.292;13.452;2024-02-28T04:37:59;6.90;99.90
21612;DHT22;47005;52.292;13.452;2024-02-28T04:40:25;6.90;99.90
21612;DHT22;47005;52.292;13.452;2024-02-28T04:42:50;7.00;99.90
21612;DHT22;47005;52.292;13.452;2024-02-28T04:45:16;6.90;99.90
21612;DHT22;47005;52.292;13.452;2024-02-28T04:47:42;7.00;99.90
21612;DHT22;47005;52.292;13.452;2024-02-28T04:50:09;6.90;99.90
21612;DHT22;47005;52.292;13.452;2024-02-28T04:52:34;7.00;99.90
21612;DHT22;47005;52.292;13.452;2024-02-28T04:55:01;7.00;99.90
21612;DHT22;47005;52.292;13.452;2024-02-28T04:57:27;6.90;99.90
21612;DHT22;47005;52.292;13.452;2024-02-28T04:59:52;6.90;99.90
21612;DHT22;47005;52.292;13.452;2024-02-28T05:02:18;6.90;99.90
21612;DHT22;47005;52.292;13.452;2024-02-28T05:04:44;6.90;99.90
21612;DHT22;47005;52.292;13.452;2024-02-28T05:07:10;6.90;99.90
21612;DHT22;47005;52.292;13.452;2024-02-28T05:09:36;6.90;99.90
21612;DHT22;47005;52.292;13.452;2024-02-28T05:12:02;6.90;99.90
21612;DHT22;47005;52.292;13.452;2024-02-28T05:14:27;6.90;99.90
21612;DHT22;47005;52.292;13.452;2024-02-28T05:16:53;6.80;99.90
21612;DHT22;47005;52.292;13.452;2024-02-28T05:19:19;6.80;99.90
21612;DHT22;47005;52.292;13.452;2024-02-28T05:21:45;6.80;99.90
21612;DHT22;47005;52.292;13.452;2024-02-28T05:24:11;6.80;99.90
21612;DHT22;47005;52.292;13.452;2024-02-28T05:26:38;6.80;99.90
21612;DHT22;47005;52.292;13.452;2024-02-28T05:29:04;6.80;99.90
21612;DHT22;47005;52.292;13.452;2024-02-28T05:31:31;6.90;99.90
21612;DHT22;47005;52.292;13.452;2024-02-28T05:34:00;6.80;99.90
21612;DHT22;47005;52.292;13.452;2024-02-28T05:36:28;6.80;99.90
21612;DHT22;47005;52.292;13.452;2024-02-28T05:38:55;6.80;99.90
21612;DHT22;47005;52.292;13.452;2024-02-28T05:41:22;6.80;99.90
21612;DHT22;47005;52.292;13.452;2024-02-28T05:43:48;6.80;99.90
21612;DHT22;47005;52.292;13.452;2024-02-28T05:46:14;6.80;99.90
21612;DHT22;47005;52.292;13.452;2024-02-28T05:48:41;6.80;99.90
21612;DHT22;47005;52.292;13.452;2024-02-28T05:51:07;6.80;99.90
21612;DHT22;47005;52.292;13.452;2024-02-28T05:53:33;6.80;99.90
21612;DHT22;47005;52.292;13.452;2024-02-28T05:56:05;6.80;99.90
21612;DHT22;47005;52.292;13.452;2024-02-28T05:58:31;6.80;99.90
21612;DHT22;47005;52.292;13.452;2024-02-28T06:00:59;6.70;99.90
21612;DHT22;47005;52.292;13.452;2024-02-28T06:03:25;6.80;99.90
21612;DHT22;47005;52.292;13.452;2024-02-28T06:05:50;6.80;99.90
21612;DHT22;47005;52.292;13.452;2024-02-28T06:08:17;6.70;99.90
21612;DHT22;47005;52.292;13.452;2024-02-28T06:10:43;6.70;99.90
21612;DHT22;47005;52.292;13.452;2024-02-28T06:13:08;6.70;99.90
21612;DHT22;47005;52.292;13.452;2024-02-28T06:15:34;6.70;99.90
21612;DHT22;47005;52.292;13.452;2024-02-28T06:18:00;6.70;99.90
21612;DHT22;47005;52.292;13.452;2024-02-28T06:20:26;6.70;99.90
21612;DHT22;47005;52.292;13.452;2024-02-28T06:22:52;6.70;99.90
21612;DHT22;47005;52.292;13.452;2024-02-28T06:25:18;6.60;99.90
21612;DHT22;47005;52.292;13.452;2024-02-28T06:27:45;6.60;99.90
21612;DHT22;47005;52.292;13.452;2024-02-28T06:30:11;6.60;99.90
21612;DHT22;47005;52.292;13.452;2024-02-28T06:32:40;6.60;99.90
21612;DHT22;47005;52.292;13.452;2024-02-28T06:35:07;6.50;99.90
21612;DHT22;47005;52.292;13.452;2024-02-28T06:37:33;6.50;99.90
21612;DHT22;47005;52.292;13.452;2024-02-28T06:39:59;6.50;99.90
21612;DHT22;47005;52.292;13.452;2024-02-28T06:42:24;6.50;99.90
21612;DHT22;47005;52.292;13.452;2024-02-28T06:44:51;6.60;99.90
21612;DHT22;47005;52.292;13.452;2024-02-28T06:47:17;6.50;99.90
21612;DHT22;47005;52.292;13.452;2024-02-28T06:49:44;6.50;99.90
21612;DHT22;47005;52.292;13.452;2024-02-28T06:52:10;6.60;99.90
21612;DHT22;47005;52.292;13.452;2024-02-28T06:54:35;6.50;99.90
21612;DHT22;47005;52.292;13.452;2024-02-28T06:57:01;6.50;99.90
21612;DHT22;47005;52.292;13.452;2024-02-28T06:59:28;6.50;99.90
21612;DHT22;47005;52.292;13.452;2024-02-28T07:01:54;6.50;99.90
21612;DHT22;47005;52.292;13.452;2024-02-28T07:04:19;6.50;99.90
21612;DHT22;47005;52.292;13.452;2024-02-28T07:06:45;6.50;99.90
21612;DHT22;47005;52.292;13.452;2024-02-28T07:09:11;6.50;99.90
21612;DHT22;47005;52.292;13.452;2024-02-28T07:11:38;6.60;99.90
21612;DHT22;47005;52.292;13.452;2024-02-28T07:14:04;6.50;99.90
21612;DHT22;47005;52.292;13.452;2024-02-28T07:16:30;6.60;99.90
21612;DHT22;47005;52.292;13.452;2024-02-28T07:18:57;6.60;99.90
21612;DHT22;47005;52.292;13.452;2024-02-28T07:21:23;6.60;99.90
21612;DHT22;47005;52.292;13.452;2024-02-28T07:23:49;6.60;99.90
21612;DHT22;47005;52.292;13.452;2024-02-28T07:26:15;6.60;99.90
21612;DHT22;47005;52.292;13.452;2024-02-28T07:28:41;6.60;99.90
21612;DHT22;47005;52.292;13.452;2024-02-28T07:31:06;6.60;99.90
21612;DHT22;47005;52.292;13.452;2024-02-28T07:33:32;6.60;99.90
21612;DHT22;47005;52.292;13.452;2024-02-28T07:35:58;6.60;99.90
21612;DHT22;47005;52.292;13.452;2024-02-28T07:38:27;6.60;99.90
21612;DHT22;47005;52.292;13.452;2024-02-28T07:40:53;6.50;99.90
21612;DHT22;47005;52.292;13.452;2024-02-28T07:43:19;6.50;99.90
21612;DHT22;47005;52.292;13.452;2024-02-28T07:45:44;6.50;99.90
21612;DHT22;47005;52.292;13.452;2024-02-28T07:48:10;6.50;99.90
21612;DHT22;47005;52.292;13.452;2024-02-28T07:50:35;6.50;99.90
21612;DHT22;47005;52.292;13.452;2024-02-28T07:53:02;6.50;99.90
21612;DHT22;47005;52.292;13.452;2024-02-28T07:55:28;6.60;99.90
21612;DHT22;47005;52.292;13.452;2024-02-28T07:57:54;6.60;99.90
21612;DHT22;47005;52.292;13.452;2024-02-28T08:00:19;6.60;99.90
21612;DHT22;47005;52.292;13.452;2024-02-28T08:02:46;6.60;99.90
21612;DHT22;47005;52.292;13.452;2024-02-28T08:05:13;6.60;99.90
21612;DHT22;47005;52.292;13.452;2024-02-28T08:07:38;6.60;99.90
21612;DHT22;47005;52.292;13.452;2024-02-28T08:10:04;6.50;99.90
21612;DHT22;47005;52.292;13.452;2024-02-28T08:12:35;6.50;99.90
21612;DHT22;47005;52.292;13.452;2024-02-28T08:15:01;6.50;99.90
21612;DHT22;47005;52.292;13.452;2024-02-28T08:17:27;6.50;99.90
21612;DHT22;47005;52.292;13.452;2024-02-28T08:19:53;6.50;99.90
21612;DHT22;47005;52.292;13.452;2024-02-28T08:22:19;6.40;99.90
21612;DHT22;47005;52.292;13.452;2024-02-28T08:24:45;6.40;99.90
21612;DHT22;47005;52.292;13.452;2024-02-28T08:27:11;6.40;99.90
21612;DHT22;47005;52.292;13.452;2024-02-28T08:29:40;6.40;99.90
21612;DHT22;47005;52.292;13.452;2024-02-28T08:32:10;6.40;99.90
21612;DHT22;47005;52.292;13.452;2024-02-28T08:34:36;6.40;99.90
21612;DHT22;47005;52.292;13.452;2024-02-28T08:37:01;6.40;99.90
21612;DHT22;47005;52.292;13.452;2024-02-28T08:39:27;6.40;99.90
21612;DHT22;47005;52.292;13.452;2024-02-28T08:41:53;6.40;99.90
21612;DHT22;47005;52.292;13.452;2024-02-28T08:44:19;6.40;99.90
21612;DHT22;47005;52.292;13.452;2024-02-28T08:46:47;6.40;99.90
21612;DHT22;47005;52.292;13.452;2024-02-28T08:49:14;6.40;99.90
21612;DHT22;47005;52.292;13.452;2024-02-28T08:51:39;6.30;99.90
21612;DHT22;47005;52.292;13.452;2024-02-28T08:54:05;6.40;99.90
21612;DHT22;47005;52.292;13.452;2024-02-28T08:56:31;6.40;99.90
21612;DHT22;47005;52.292;13.452;2024-02-28T08:58:57;6.40;99.90
21612;DHT22;47005;52.292;13.452;2024-02-28T09:01:22;6.30;99.90
21612;DHT22;47005;52.292;13.452;2024-02-28T09:03:48;6.40;99.90
21612;DHT22;47005;52.292;13.452;2024-02-28T09:06:14;6.40;99.90
21612;DHT22;47005;52.292;13.452;2024-02-28T09:08:39;6.40;99.90
21612;DHT22;47005;52.292;13.452;2024-02-28T09:11:05;6.40;99.90
21612;DHT22;47005;52.292;13.452;2024-02-28T09:13:31;6.40;99.90
21612;DHT22;47005;52.292;13.452;2024-02-28T09:15:57;6.40;99.90
21612;DHT22;47005;52.292;13.452;2024-02-28T09:18:23;6.40;99.90
21612;DHT22;47005;52.292;13.452;2024-02-28T09:20:49;6.40;99.90
21612;DHT22;47005;52.292;13.452;2024-02-28T09:23:14;6.40;99.90
21612;DHT22;47005;52.292;13.452;2024-02-28T09:25:40;6.40;99.90
21612;DHT22;47005;52.292;13.452;2024-02-28T09:28:06;6.40;99.90
21612;DHT22;47005;52.292;13.452;2024-02-28T09:30:31;6.40;99.90
21612;DHT22;47005;52.292;13.452;2024-02-28T09:32:57;6.40;99.90
21612;DHT22;47005;52.292;13.452;2024-02-28T09:35:22;6.40;99.90
21612;DHT22;47005;52.292;13.452;2024-02-28T09:37:48;6.40;99.90
21612;DHT22;47005;52.292;13.452;2024-02-28T09:40:14;6.40;99.90
21612;DHT22;47005;52.292;13.452;2024-02-28T09:42:39;6.40;99.90
21612;DHT22;47005;52.292;13.452;2024-02-28T09:45:08;6.40;99.90
21612;DHT22;47005;52.292;13.452;2024-02-28T09:47:34;6.50;99.90
21612;DHT22;47005;52.292;13.452;2024-02-28T09:50:00;6.50;99.90
21612;DHT22;47005;52.292;13.452;2024-02-28T09:52:27;6.40;99.90
21612;DHT22;47005;52.292;13.452;2024-02-28T09:54:55;6.50;99.90
21612;DHT22;47005;52.292;13.452;2024-02-28T09:57:22;6.40;99.90
21612;DHT22;47005;52.292;13.452;2024-02-28T09:59:55;6.50;99.90
21612;DHT22;47005;52.292;13.452;2024-02-28T10:02:23;6.50;99.90
21612;DHT22;47005;52.292;13.452;2024-02-28T10:04:49;6.50;99.90
21612;DHT22;47005;52.292;13.452;2024-02-28T10:07:15;6.50;99.90
21612;DHT22;47005;52.292;13.452;2024-02-28T10:09:41;6.50;99.90
21612;DHT22;47005;52.292;13.452;2024-02-28T10:12:07;6.50;99.90
21612;DHT22;47005;52.292;13.452;2024-02-28T10:14:33;6.50;99.90
21612;DHT22;47005;52.292;13.452;2024-02-28T10:16:59;6.50;99.90
21612;DHT22;47005;52.292;13.452;2024-02-28T10:19:25;6.50;99.90
21612;DHT22;47005;52.292;13.452;2024-02-28T10:21:51;6.50;99.90
21612;DHT22;47005;52.292;13.452;2024-02-28T10:24:16;6.50;99.90
21612;DHT22;47005;52.292;13.452;2024-02-28T10:26:46;6.50;99.90
21612;DHT22;47005;52.292;13.452;2024-02-28T10:29:24;6.50;99.90
21612;DHT22;47005;52.292;13.452;2024-02-28T10:31:52;6.50;99.90
21612;DHT22;47005;52.292;13.452;2024-02-28T10:34:20;6.60;99.90
21612;DHT22;47005;52.292;13.452;2024-02-28T10:36:46;6.50;99.90
21612;DHT22;47005;52.292;13.452;2024-02-28T10:39:12;6.50;99.90
21612;DHT22;47005;52.292;13.452;2024-02-28T10:41:39;6.60;99.90
21612;DHT22;47005;52.292;13.452;2024-02-28T10:44:05;6.60;99.90
21612;DHT22;47005;52.292;13.452;2024-02-28T10:46:31;6.60;99.90
21612;DHT22;47005;52.292;13.452;2024-02-28T10:48:57;6.60;99.90
21612;DHT22;47005;52.292;13.452;2024-02-28T10:51:26;6.70;99.90
21612;DHT22;47005;52.292;13.452;2024-02-28T10:54:12;6.70;99.90
21612;DHT22;47005;52.292;13.452;2024-02-28T10:56:42;6.70;99.90
21612;DHT22;47005;52.292;13.452;2024-02-28T10:59:09;6.70;99.90
21612;DHT22;47005;52.292;13.452;2024-02-28T11:01:36;6.70;99.90
21612;DHT22;47005;52.292;13.452;2024-02-28T11:04:03;6.70;99.90
21612;DHT22;47005;52.292;13.452;2024-02-28T11:06:29;6.70;99.90
21612;DHT22;47005;52.292;13.452;2024-02-28T11:08:55;6.70;99.90
21612;DHT22;47005;52.292;13.452;2024-02-28T11:11:22;6.80;99.90
21612;DHT22;47005;52.292;13.452;2024-02-28T11:13:54;6.80;99.90
21612;DHT22;47005;52.292;13.452;2024-02-28T11:16:31;6.80;99.90
21612;DHT22;47005;52.292;13.452;2024-02-28T11:18:58;6.80;99.90
21612;DHT22;47005;52.292;13.452;2024-02-28T11:21:27;6.80;99.90
21612;DHT22;47005;52.292;13.452;2024-02-28T11:24:00;6.80;99.90
21612;DHT22;47005;52.292;13.452;2024-02-28T11:26:26;6.80;99.90
21612;DHT22;47005;52.292;13.452;2024-02-28T11:28:54;6.80;99.90
21612;DHT22;47005;52.292;13.452;2024-02-28T11:31:21;6.90;99.90
21612;DHT22;47005;52.292;13.452;2024-02-28T11:33:46;6.80;99.90
21612;DHT22;47005;52.292;13.452;2024-02-28T11:36:12;6.80;99.90
21612;DHT22;47005;52.292;13.452;2024-02-28T11:38:39;6.90;99.90
21612;DHT22;47005;52.292;13.452;2024-02-28T11:41:05;6.90;99.90
21612;DHT22;47005;52.292;13.452;2024-02-28T11:43:34;6.80;99.90
21612;DHT22;47005;52.292;13.452;2024-02-28T11:46:00;6.90;99.90
21612;DHT22;47005;52.292;13.452;2024-02-28T11:48:26;6.90;99.90
21612;DHT22;47005;52.292;13.452;2024-02-28T11:50:56;6.90;99.50
21612;DHT22;47005;52.292;13.452;2024-02-28T11:53:24;6.90;99.30
21612;DHT22;47005;52.292;13.452;2024-02-28T11:55:52;6.90;99.40
21612;DHT22;47005;52.292;13.452;2024-02-28T11:58:17;6.90;99.50
21612;DHT22;47005;52.292;13.452;2024-02-28T12:00:48;6.90;98.90
21612;DHT22;47005;52.292;13.452;2024-02-28T12:03:14;6.90;99.20
21612;DHT22;47005;52.292;13.452;2024-02-28T12:05:43;6.90;99.30
21612;DHT22;47005;52.292;13.452;2024-02-28T12:08:11;7.00;99.50
21612;DHT22;47005;52.292;13.452;2024-02-28T12:10:36;7.00;99.80
21612;DHT22;47005;52.292;13.452;2024-02-28T12:13:02;7.00;99.30
21612;DHT22;47005;52.292;13.452;2024-02-28T12:15:29;7.00;99.20
21612;DHT22;47005;52.292;13.452;2024-02-28T12:17:55;7.00;98.90
21612;DHT22;47005;52.292;13.452;2024-02-28T12:20:20;7.00;99.00
21612;DHT22;47005;52.292;13.452;2024-02-28T12:22:46;7.00;98.80
21612;DHT22;47005;52.292;13.452;2024-02-28T12:25:11;7.10;98.60
21612;DHT22;47005;52.292;13.452;2024-02-28T12:27:37;7.00;98.60
21612;DHT22;47005;52.292;13.452;2024-02-28T12:30:03;7.00;97.90
21612;DHT22;47005;52.292;13.452;2024-02-28T12:32:28;7.00;98.20
21612;DHT22;47005;52.292;13.452;2024-02-28T12:34:54;7.00;98.20
21612;DHT22;47005;52.292;13.452;2024-02-28T12:37:20;7.10;98.50
21612;DHT22;47005;52.292;13.452;2024-02-28T12:39:45;7.10;98.40
21612;DHT22;47005;52.292;13.452;2024-02-28T12:42:13;7.10;97.80
21612;DHT22;47005;52.292;13.452;2024-02-28T12:44:38;7.10;97.40
21612;DHT22;47005;52.292;13.452;2024-02-28T12:47:06;7.10;97.70
21612;DHT22;47005;52.292;13.452;2024-02-28T12:49:32;7.20;97.90
21612;DHT22;47005;52.292;13.452;2024-02-28T12:51:57;7.10;97.90
21612;DHT22;47005;52.292;13.452;2024-02-28T12:54:23;7.20;97.70
21612;DHT22;47005;52.292;13.452;2024-02-28T12:56:49;7.20;97.40
21612;DHT22;47005;52.292;13.452;2024-02-28T12:59:15;7.30;97.30
21612;DHT22;47005;52.292;13.452;2024-02-28T13:01:41;7.30;97.30
21612;DHT22;47005;52.292;13.452;2024-02-28T13:04:07;7.30;97.70
21612;DHT22;47005;52.292;13.452;2024-02-28T13:06:33;7.30;97.40
21612;DHT22;47005;52.292;13.452;2024-02-28T13:08:58;7.30;97.20
21612;DHT22;47005;52.292;13.452;2024-02-28T13:11:24;7.40;97.50
21612;DHT22;47005;52.292;13.452;2024-02-28T13:13:51;7.40;97.80
21612;DHT22;47005;52.292;13.452;2024-02-28T13:16:18;7.40;97.00
21612;DHT22;47005;52.292;13.452;2024-02-28T13:18:44;7.40;97.50
21612;DHT22;47005;52.292;13.452;2024-02-28T13:21:11;7.50;97.60
21612;DHT22;47005;52.292;13.452;2024-02-28T13:23:37;7.50;97.90
21612;DHT22;47005;52.292;13.452;2024-02-28T13:26:06;7.60;97.70
21612;DHT22;47005;52.292;13.452;2024-02-28T13:28:32;7.60;97.20
21612;DHT22;47005;52.292;13.452;2024-02-28T13:30:59;7.60;97.30
21612;DHT22;47005;52.292;13.452;2024-02-28T13:33:25;7.70;96.90
21612;DHT22;47005;52.292;13.452;2024-02-28T13:35:52;7.70;97.20
21612;DHT22;47005;52.292;13.452;2024-02-28T13:38:18;7.70;97.40
21612;DHT22;47005;52.292;13.452;2024-02-28T13:40:45;7.70;96.70
21612;DHT22;47005;52.292;13.452;2024-02-28T13:43:11;7.70;96.50
21612;DHT22;47005;52.292;13.452;2024-02-28T13:45:50;7.70;96.90
21612;DHT22;47005;52.292;13.452;2024-02-28T13:48:23;7.70;97.10
21612;DHT22;47005;52.292;13.452;2024-02-28T13:50:54;7.70;96.50
21612;DHT22;47005;52.292;13.452;2024-02-28T13:53:20;7.70;96.90
21612;DHT22;47005;52.292;13.452;2024-02-28T13:55:46;7.80;96.60
21612;DHT22;47005;52.292;13.452;2024-02-28T13:58:12;7.80;96.60
21612;DHT22;47005;52.292;13.452;2024-02-28T14:00:38;7.80;96.70
21612;DHT22;47005;52.292;13.452;2024-02-28T14:03:05;7.80;96.90
21612;DHT22;47005;52.292;13.452;2024-02-28T14:05:34;7.80;96.70
21612;DHT22;47005;52.292;13.452;2024-02-28T14:08:00;7.80;97.00
21612;DHT22;47005;52.292;13.452;2024-02-28T14:10:26;7.90;97.20
21612;DHT22;47005;52.292;13.452;2024-02-28T14:12:52;8.00;97.40
21612;DHT22;47005;52.292;13.452;2024-02-28T14:15:21;8.10;97.50
21612;DHT22;47005;52.292;13.452;2024-02-28T14:17:48;8.30;97.80
21612;DHT22;47005;52.292;13.452;2024-02-28T14:20:13;8.50;97.80
21612;DHT22;47005;52.292;13.452;2024-02-28T14:22:40;8.60;97.20
21612;DHT22;47005;52.292;13.452;2024-02-28T14:25:17;8.80;97.00
21612;DHT22;47005;52.292;13.452;2024-02-28T14:27:47;8.90;96.40
21612;DHT22;47005;52.292;13.452;2024-02-28T14:30:13;8.90;95.20
21612;DHT22;47005;52.292;13.452;2024-02-28T14:32:41;9.00;94.80
21612;DHT22;47005;52.292;13.452;2024-02-28T14:35:08;9.00;95.10
21612;DHT22;47005;52.292;13.452;2024-02-28T14:37:34;9.10;94.50
21612;DHT22;47005;52.292;13.452;2024-02-28T14:40:01;9.10;95.20
21612;DHT22;47005;52.292;13.452;2024-02-28T14:42:27;9.10;95.00
21612;DHT22;47005;52.292;13.452;2024-02-28T14:44:53;9.20;94.70
21612;DHT22;47005;52.292;13.452;2024-02-28T14:47:21;9.20;94.90
21612;DHT22;47005;52.292;13.452;2024-02-28T14:49:47;9.30;95.00
21612;DHT22;47005;52.292;13.452;2024-02-28T14:52:13;9.40;95.10
21612;DHT22;47005;52.292;13.452;2024-02-28T14:54:41;9.40;94.40
21612;DHT22;47005;52.292;13.452;2024-02-28T14:57:07;9.40;94.40
21612;DHT22;47005;52.292;13.452;2024-02-28T14:59:33;9.50;94.60
21612;DHT22;47005;52.292;13.452;2024-02-28T15:01:59;9.50;94.10
21612;DHT22;47005;52.292;13.452;2024-02-28T15:04:25;9.60;93.80
21612;DHT22;47005;52.292;13.452;2024-02-28T15:06:51;9.60;94.20
21612;DHT22;47005;52.292;13.452;2024-02-28T15:09:21;9.70;94.10
21612;DHT22;47005;52.292;13.452;2024-02-28T15:11:50;9.70;94.30
21612;DHT22;47005;52.292;13.452;2024-02-28T15:14:16;9.70;94.40
21612;DHT22;47005;52.292;13.452;2024-02-28T15:16:41;9.80;94.10
21612;DHT22;47005;52.292;13.452;2024-02-28T15:19:07;9.80;94.50
21612;DHT22;47005;52.292;13.452;2024-02-28T15:21:33;9.80;94.40
21612;DHT22;47005;52.292;13.452;2024-02-28T15:23:58;9.70;94.30